createdAt,value
2019-04-30T00:01:48.541Z,22.30
2019-04-30T00:04:17.311Z,22.90
2019-04-30T00:06:46.038Z,22.47
2019-04-30T00:09:19.061Z,23.07
2019-04-30T00:11:50.571Z,22.73
2019-04-30T00:14:17.605Z,22.60
2019-04-30T00:16:46.402Z,22.90
2019-04-30T00:19:19.168Z,21.60
2019-04-30T00:21:48.266Z,17.00
2019-04-30T00:24:16.037Z,15.47
2019-04-30T00:26:51.847Z,17.43
2019-04-30T00:29:19.093Z,18.13
2019-04-30T00:31:47.156Z,16.77
2019-04-30T00:34:17.536Z,16.17
2019-04-30T00:36:46.103Z,16.93
2019-04-30T00:39:16.690Z,19.93
2019-04-30T00:41:47.371Z,19.87
2019-04-30T00:44:19.862Z,21.77
2019-04-30T00:46:48.015Z,21.17
2019-04-30T00:49:22.950Z,23.00
2019-04-30T00:51:49.860Z,24.07
2019-04-30T00:54:17.664Z,22.90
2019-04-30T00:56:46.471Z,25.53
2019-04-30T00:59:15.569Z,25.47
2019-04-30T01:01:48.131Z,26.20
2019-04-30T01:04:24.502Z,25.93
2019-04-30T01:06:51.103Z,24.10
2019-04-30T01:09:19.746Z,29.53
2019-04-30T01:11:48.512Z,24.03
2019-04-30T01:14:18.730Z,25.57
2019-04-30T01:16:49.268Z,23.07
2019-04-30T01:19:29.127Z,23.03
2019-04-30T01:21:50.454Z,23.20
2019-04-30T01:24:19.073Z,22.90
2019-04-30T01:26:48.615Z,24.83
2019-04-30T01:29:19.235Z,24.30
2019-04-30T01:31:48.859Z,24.70
2019-04-30T01:34:19.640Z,26.20
2019-04-30T01:37:01.124Z,28.23
2019-04-30T01:39:31.586Z,26.03
2019-04-30T01:42:02.957Z,25.70
2019-04-30T01:44:30.522Z,24.03
2019-04-30T01:46:59.208Z,26.47
2019-04-30T01:49:30.051Z,27.40
2019-04-30T01:52:00.484Z,26.90
2019-04-30T01:54:29.117Z,28.57
2019-04-30T01:57:15.797Z,28.90
2019-04-30T02:00:02.749Z,29.87
2019-04-30T02:02:36.212Z,31.90
2019-04-30T02:05:06.572Z,32.13
2019-04-30T02:07:35.285Z,32.97
2019-04-30T02:10:04.991Z,33.10
2019-04-30T02:12:33.605Z,33.07
2019-04-30T02:15:02.239Z,34.83
2019-04-30T02:17:30.871Z,34.33
2019-04-30T02:19:59.540Z,33.73
2019-04-30T02:22:30.902Z,34.33
2019-04-30T02:24:58.713Z,33.00
2019-04-30T02:27:29.472Z,33.30
2019-04-30T02:30:01.877Z,33.10
2019-04-30T02:32:30.376Z,33.80
2019-04-30T02:35:00.334Z,33.03
2019-04-30T02:37:30.681Z,32.73
2019-04-30T02:40:00.846Z,36.27
2019-04-30T02:42:30.157Z,33.07
2019-04-30T02:45:03.408Z,36.90
2019-04-30T02:47:33.106Z,35.23
2019-04-30T02:50:15.290Z,38.67
2019-04-30T02:52:35.292Z,35.87
2019-04-30T02:55:05.598Z,38.70
2019-04-30T02:57:34.238Z,39.30
2019-04-30T03:00:14.020Z,37.70
2019-04-30T03:02:42.738Z,36.23
2019-04-30T03:05:13.553Z,35.93
2019-04-30T03:07:42.162Z,31.27
2019-04-30T03:10:10.947Z,33.87
2019-04-30T03:12:40.581Z,35.83
2019-04-30T03:15:10.133Z,34.07
2019-04-30T03:17:46.380Z,34.80
2019-04-30T03:20:36.039Z,34.27
2019-04-30T03:23:02.417Z,34.23
2019-04-30T03:25:31.243Z,35.57
2019-04-30T03:28:00.440Z,33.40
2019-04-30T03:30:31.827Z,35.07
2019-04-30T03:33:02.638Z,33.63
2019-04-30T03:35:32.336Z,30.60
2019-04-30T03:38:00.287Z,30.47
2019-04-30T03:40:30.171Z,30.67
2019-04-30T03:43:02.682Z,32.70
2019-04-30T03:45:30.176Z,33.57
2019-04-30T03:48:00.258Z,32.30
2019-04-30T03:50:41.531Z,30.47
2019-04-30T03:53:00.433Z,29.27
2019-04-30T03:55:29.952Z,30.33
2019-04-30T03:58:00.191Z,28.97
2019-04-30T04:00:33.562Z,31.03
2019-04-30T04:03:02.198Z,32.73
2019-04-30T04:05:32.479Z,28.30
2019-04-30T04:08:05.994Z,30.63
2019-04-30T04:10:42.257Z,31.47
2019-04-30T04:13:10.861Z,25.53
2019-04-30T04:15:40.079Z,25.93
2019-04-30T04:18:10.635Z,27.37
2019-04-30T04:20:39.536Z,24.93
2019-04-30T04:23:09.740Z,23.10
2019-04-30T04:25:39.962Z,25.53
2019-04-30T04:28:10.048Z,26.37
2019-04-30T04:30:39.760Z,25.60
2019-04-30T04:33:10.215Z,26.03
2019-04-30T04:35:39.383Z,25.50
2019-04-30T04:38:12.239Z,25.17
2019-04-30T04:40:40.055Z,26.53
2019-04-30T04:43:10.448Z,23.00
2019-04-30T04:45:40.458Z,26.03
2019-04-30T04:48:09.800Z,26.80
2019-04-30T04:50:39.957Z,24.73
2019-04-30T04:53:11.410Z,26.60
2019-04-30T04:55:40.065Z,25.63
2019-04-30T04:58:30.282Z,27.47
2019-04-30T05:00:59.234Z,24.30
2019-04-30T05:03:30.025Z,26.83
2019-04-30T05:06:02.305Z,26.47
2019-04-30T05:08:29.171Z,28.57
2019-04-30T05:10:59.403Z,24.13
2019-04-30T05:13:29.042Z,24.70
2019-04-30T05:15:59.426Z,26.90
2019-04-30T05:18:29.115Z,28.40
2019-04-30T05:20:59.024Z,26.00
2019-04-30T05:23:29.809Z,27.00
2019-04-30T05:25:58.951Z,25.43
2019-04-30T05:28:29.968Z,27.60
2019-04-30T05:30:59.396Z,28.57
2019-04-30T05:33:28.652Z,27.37
2019-04-30T05:35:59.270Z,24.90
2019-04-30T05:38:28.685Z,27.67
2019-04-30T05:40:59.580Z,30.10
2019-04-30T05:43:28.950Z,27.80
2019-04-30T05:45:58.663Z,28.27
2019-04-30T05:48:28.579Z,27.73
2019-04-30T05:50:59.097Z,28.43
2019-04-30T05:53:28.662Z,27.47
2019-04-30T05:55:59.361Z,26.20
2019-04-30T05:58:30.038Z,27.50
2019-04-30T06:00:59.735Z,27.80
2019-04-30T06:03:33.056Z,28.87
2019-04-30T06:05:59.310Z,27.03
2019-04-30T06:08:32.384Z,26.70
2019-04-30T06:11:02.732Z,26.07
2019-04-30T06:13:40.366Z,24.00
2019-04-30T06:16:14.055Z,27.97
2019-04-30T06:18:42.763Z,27.60
2019-04-30T06:21:11.501Z,27.20
2019-04-30T06:23:40.280Z,28.93
2019-04-30T06:26:12.211Z,25.43
2019-04-30T06:28:41.598Z,26.87
2019-04-30T06:31:10.188Z,26.03
2019-04-30T06:33:39.079Z,25.97
2019-04-30T06:36:08.603Z,26.13
2019-04-30T06:38:38.760Z,27.77
2019-04-30T06:41:08.710Z,25.90
2019-04-30T06:43:38.668Z,29.13
2019-04-30T06:46:08.834Z,25.77
2019-04-30T06:48:39.251Z,27.73
2019-04-30T06:54:13.883Z,26.57
2019-04-30T06:56:42.499Z,27.73
2019-04-30T06:59:11.133Z,27.43
2019-04-30T07:01:39.832Z,26.87
2019-04-30T07:04:10.381Z,26.43
2019-04-30T07:06:46.024Z,27.90
2019-04-30T07:09:36.371Z,28.67
2019-04-30T07:12:27.253Z,25.63
2019-04-30T07:14:52.082Z,25.50
2019-04-30T07:17:22.306Z,25.87
2019-04-30T07:19:56.531Z,25.50
2019-04-30T07:22:36.544Z,25.17
2019-04-30T07:24:51.710Z,25.37
2019-04-30T07:27:23.874Z,25.80
2019-04-30T07:30:10.375Z,26.17
2019-04-30T07:32:39.037Z,25.33
2019-04-30T07:35:09.504Z,24.23
2019-04-30T07:37:39.216Z,26.33
2019-04-30T07:40:09.393Z,23.63
2019-04-30T07:42:44.486Z,23.27
2019-04-30T07:45:09.649Z,25.63
2019-04-30T07:47:39.612Z,26.13
2019-04-30T07:50:10.633Z,25.27
2019-04-30T07:52:57.483Z,25.27
2019-04-30T07:55:09.854Z,26.73
2019-04-30T07:57:40.321Z,24.87
2019-04-30T08:00:10.233Z,25.33
2019-04-30T08:02:43.542Z,24.07
2019-04-30T08:05:13.032Z,24.43
2019-04-30T08:07:41.739Z,23.73
2019-04-30T08:10:10.641Z,23.93
2019-04-30T08:12:43.152Z,21.80
2019-04-30T08:15:09.758Z,22.93
2019-04-30T08:17:38.993Z,24.47
2019-04-30T08:20:08.760Z,23.73
2019-04-30T08:22:40.838Z,23.67
2019-04-30T08:25:09.747Z,22.33
2019-04-30T08:27:39.310Z,21.67
2019-04-30T08:30:21.265Z,21.93
2019-04-30T08:32:39.492Z,21.03
2019-04-30T08:35:09.934Z,22.97
2019-04-30T08:37:38.725Z,21.13
2019-04-30T08:40:08.688Z,22.90
2019-04-30T08:42:39.755Z,22.30
2019-04-30T08:45:09.541Z,21.67
2019-04-30T08:47:39.242Z,20.70
2019-04-30T08:50:09.797Z,21.80
2019-04-30T08:52:39.441Z,21.30
2019-04-30T08:55:16.085Z,21.87
2019-04-30T08:57:39.605Z,19.87
2019-04-30T09:00:09.221Z,18.97
2019-04-30T09:02:39.112Z,19.67
2019-04-30T09:05:22.150Z,21.30
2019-04-30T09:07:50.816Z,20.20
2019-04-30T09:10:19.535Z,20.13
2019-04-30T09:12:49.533Z,21.97
2019-04-30T09:15:18.995Z,17.80
2019-04-30T09:17:58.941Z,18.23
2019-04-30T09:20:19.409Z,19.53
2019-04-30T09:22:49.565Z,19.80
2019-04-30T09:25:19.463Z,18.03
2019-04-30T09:27:48.875Z,16.07
2019-04-30T09:30:18.798Z,16.10
2019-04-30T09:32:49.846Z,16.13
2019-04-30T09:35:19.619Z,17.33
2019-04-30T09:37:49.599Z,17.63
2019-04-30T09:40:21.104Z,16.83
2019-04-30T09:42:49.109Z,15.50
2019-04-30T09:45:18.707Z,17.00
2019-04-30T09:47:47.699Z,17.70
2019-04-30T09:50:16.536Z,15.77
2019-04-30T09:52:45.417Z,18.47
2019-04-30T09:55:15.019Z,18.50
2019-04-30T09:57:43.846Z,17.00
2019-04-30T10:00:13.894Z,17.87
2019-04-30T10:02:42.628Z,17.37
2019-04-30T10:05:12.548Z,18.43
2019-04-30T10:07:41.839Z,16.80
2019-04-30T10:10:12.927Z,15.90
2019-04-30T10:12:41.651Z,17.43
2019-04-30T10:15:12.444Z,15.40
2019-04-30T10:17:42.779Z,31.90
2019-04-30T10:20:13.173Z,18.00
2019-04-30T10:22:41.887Z,18.00
2019-04-30T10:25:11.134Z,13.30
2019-04-30T10:27:39.961Z,13.03
2019-04-30T10:30:10.346Z,12.73
2019-04-30T10:32:39.170Z,13.17
2019-04-30T10:35:08.156Z,12.57
2019-04-30T10:37:38.619Z,13.17
2019-04-30T10:40:10.526Z,12.23
2019-04-30T10:42:58.733Z,13.37
2019-04-30T10:45:28.791Z,12.57
2019-04-30T10:47:59.248Z,14.00
2019-04-30T10:50:28.078Z,13.80
2019-04-30T10:52:56.794Z,13.43
2019-04-30T10:55:25.881Z,12.93
2019-04-30T10:57:54.618Z,13.27
2019-04-30T11:00:38.969Z,14.47
2019-04-30T11:03:19.243Z,13.60
2019-04-30T11:05:41.040Z,13.47
2019-04-30T11:08:09.293Z,13.60
2019-04-30T11:10:39.900Z,14.33
2019-04-30T11:13:08.719Z,13.30
2019-04-30T11:15:39.269Z,15.17
2019-04-30T11:18:07.879Z,14.30
2019-04-30T11:20:36.709Z,13.87
2019-04-30T11:23:14.098Z,16.70
2019-04-30T11:25:37.267Z,14.00
2019-04-30T11:28:07.063Z,14.00
2019-04-30T11:30:37.361Z,14.27
2019-04-30T11:33:07.279Z,15.23
2019-04-30T11:35:36.017Z,13.43
2019-04-30T11:38:05.119Z,15.10
2019-04-30T11:40:37.305Z,14.10
2019-04-30T11:43:04.383Z,13.03
2019-04-30T11:45:52.907Z,12.57
2019-04-30T11:48:21.531Z,11.63
2019-04-30T11:50:50.229Z,13.60
2019-04-30T11:53:25.272Z,12.60
2019-04-30T11:55:49.494Z,12.17
2019-04-30T11:58:21.768Z,10.50
2019-04-30T12:00:49.466Z,12.43
2019-04-30T12:03:19.207Z,13.00
2019-04-30T12:05:49.026Z,13.53
2019-04-30T12:08:22.310Z,12.87
2019-04-30T12:10:55.635Z,13.23
2019-04-30T12:13:26.273Z,13.87
2019-04-30T12:15:55.998Z,12.60
2019-04-30T12:18:24.920Z,12.70
2019-04-30T12:20:53.617Z,15.37
2019-04-30T12:23:22.267Z,12.07
2019-04-30T12:25:50.967Z,13.00
2019-04-30T12:28:19.952Z,14.03
2019-04-30T12:30:49.073Z,13.57
2019-04-30T12:33:19.145Z,13.30
2019-04-30T12:35:50.876Z,13.40
2019-04-30T12:38:19.212Z,13.90
2019-04-30T12:40:48.134Z,13.77
2019-04-30T12:43:16.906Z,13.27
2019-04-30T12:45:45.637Z,13.10
2019-04-30T12:48:21.896Z,11.67
2019-04-30T12:50:54.676Z,12.17
2019-04-30T12:53:24.911Z,13.17
2019-04-30T12:56:04.041Z,14.37
2019-04-30T12:58:32.823Z,12.80
2019-04-30T13:01:01.460Z,14.57
2019-04-30T13:03:30.843Z,12.30
2019-04-30T13:06:01.268Z,13.80
2019-04-30T13:08:30.415Z,13.17
2019-04-30T13:10:59.974Z,13.07
2019-04-30T13:13:31.733Z,13.40
2019-04-30T13:16:00.047Z,13.30
2019-04-30T13:18:29.595Z,12.83
2019-04-30T13:20:58.861Z,13.93
2019-04-30T13:23:29.736Z,13.07
2019-04-30T13:25:58.514Z,14.60
2019-04-30T13:28:30.493Z,12.17
2019-04-30T13:30:59.375Z,11.63
2019-04-30T13:33:29.767Z,12.27
2019-04-30T13:35:58.912Z,11.17
2019-04-30T13:38:29.245Z,10.87
2019-04-30T13:41:05.308Z,13.33
2019-04-30T13:43:53.675Z,13.23
2019-04-30T13:46:22.730Z,11.83
2019-04-30T13:48:51.451Z,12.00
2019-04-30T13:51:20.171Z,12.27
2019-04-30T13:53:48.876Z,11.87
2019-04-30T13:56:20.057Z,12.57
2019-04-30T13:58:48.283Z,12.60
2019-04-30T14:01:18.834Z,11.73
2019-04-30T14:03:49.009Z,12.30
2019-04-30T14:06:25.352Z,11.27
2019-04-30T14:08:55.687Z,10.93
2019-04-30T14:11:24.320Z,10.20
2019-04-30T14:13:53.198Z,11.50
2019-04-30T14:16:22.418Z,11.03
2019-04-30T14:18:51.202Z,12.00
2019-04-30T14:21:32.286Z,12.30
2019-04-30T14:23:50.217Z,11.87
2019-04-30T14:26:19.420Z,11.13
2019-04-30T14:28:48.958Z,12.13
2019-04-30T14:31:18.712Z,10.33
2019-04-30T14:33:48.106Z,11.10
2019-04-30T14:36:19.298Z,12.50
2019-04-30T14:38:48.904Z,12.17
2019-04-30T14:41:18.139Z,11.67
2019-04-30T14:44:01.345Z,11.57
2019-04-30T14:46:35.456Z,12.03
2019-04-30T14:49:23.621Z,11.27
2019-04-30T14:51:53.040Z,11.43
2019-04-30T14:54:26.235Z,12.67
2019-04-30T14:57:02.443Z,12.13
2019-04-30T14:59:35.894Z,10.33
2019-04-30T15:02:06.273Z,11.07
2019-04-30T15:04:34.960Z,11.43
2019-04-30T15:07:03.819Z,11.07
2019-04-30T15:09:32.623Z,12.00
2019-04-30T15:12:01.406Z,11.10
2019-04-30T15:14:30.123Z,12.27
2019-04-30T15:16:58.853Z,11.00
2019-04-30T15:19:27.500Z,11.83
2019-04-30T15:21:56.145Z,11.63
2019-04-30T15:24:26.779Z,11.33
2019-04-30T15:26:57.861Z,11.67
2019-04-30T15:29:25.943Z,11.67
2019-04-30T15:31:54.496Z,11.90
2019-04-30T15:34:23.199Z,12.27
2019-04-30T15:36:52.020Z,11.93
2019-04-30T15:39:22.348Z,12.17
2019-04-30T15:41:51.111Z,12.67
2019-04-30T15:44:19.892Z,12.27
2019-04-30T15:46:48.655Z,11.40
2019-04-30T15:49:17.359Z,12.83
2019-04-30T15:51:46.462Z,12.70
2019-04-30T15:54:15.391Z,12.43
2019-04-30T15:56:44.097Z,13.47
2019-04-30T15:59:20.261Z,12.43
2019-04-30T16:02:02.771Z,12.17
2019-04-30T16:04:35.861Z,11.90
2019-04-30T16:07:04.579Z,11.87
2019-04-30T16:09:34.950Z,14.27
2019-04-30T16:12:21.475Z,11.70
2019-04-30T16:14:50.293Z,13.57
2019-04-30T16:17:20.785Z,11.70
2019-04-30T16:19:49.540Z,12.23
2019-04-30T16:22:19.190Z,12.67
2019-04-30T16:24:49.566Z,12.10
2019-04-30T16:27:19.167Z,12.50
2019-04-30T16:29:49.962Z,12.60
2019-04-30T16:32:19.668Z,12.83
2019-04-30T16:34:49.883Z,12.60
2019-04-30T16:37:20.257Z,12.03
2019-04-30T16:39:49.179Z,14.50
2019-04-30T16:42:19.029Z,12.00
2019-04-30T16:44:47.919Z,12.37
2019-04-30T16:47:17.097Z,12.00
2019-04-30T16:49:46.185Z,12.23
2019-04-30T16:52:14.938Z,11.77
2019-04-30T16:54:43.619Z,11.97
2019-04-30T16:57:12.427Z,12.33
2019-04-30T16:59:43.958Z,11.87
2019-04-30T17:02:13.478Z,12.97
2019-04-30T17:04:49.895Z,13.60
2019-04-30T17:07:25.980Z,12.67
2019-04-30T17:10:02.190Z,12.37
2019-04-30T17:12:41.428Z,11.83
2019-04-30T17:15:22.528Z,12.47
2019-04-30T17:17:51.299Z,11.67
2019-04-30T17:20:20.904Z,12.33
2019-04-30T17:22:50.427Z,12.73
2019-04-30T17:25:19.344Z,12.00
2019-04-30T17:27:48.173Z,11.17
2019-04-30T17:30:19.210Z,12.27
2019-04-30T17:32:49.701Z,11.20
2019-04-30T17:35:19.030Z,11.83
2019-04-30T17:37:47.987Z,11.50
2019-04-30T17:40:19.187Z,12.70
2019-04-30T17:42:47.754Z,11.10
2019-04-30T17:45:19.485Z,12.83
2019-04-30T17:47:48.529Z,12.03
2019-04-30T17:50:18.725Z,11.97
2019-04-30T17:52:47.916Z,12.83
2019-04-30T17:55:16.664Z,12.43
2019-04-30T17:57:45.471Z,12.83
2019-04-30T18:00:19.316Z,12.50
2019-04-30T18:02:46.240Z,12.67
2019-04-30T18:05:14.943Z,14.10
2019-04-30T18:07:43.673Z,12.67
2019-04-30T18:10:13.977Z,13.30
2019-04-30T18:12:42.679Z,12.90
2019-04-30T18:15:17.846Z,12.77
2019-04-30T18:17:50.858Z,13.40
2019-04-30T18:20:21.204Z,12.23
2019-04-30T18:22:54.320Z,13.07
2019-04-30T18:25:24.593Z,13.67
2019-04-30T18:28:03.879Z,13.43
2019-04-30T18:30:38.951Z,13.13
2019-04-30T18:33:09.725Z,14.00
2019-04-30T18:35:38.786Z,13.17
2019-04-30T18:38:09.640Z,12.93
2019-04-30T18:40:39.719Z,12.90
2019-04-30T18:43:08.938Z,13.67
2019-04-30T18:45:41.381Z,13.67
2019-04-30T18:48:10.084Z,12.73
2019-04-30T18:50:38.898Z,12.70
2019-04-30T18:53:15.262Z,12.20
2019-04-30T18:55:43.953Z,12.90
2019-04-30T18:58:12.623Z,12.70
2019-04-30T19:00:42.922Z,11.93
2019-04-30T19:03:11.935Z,12.80
2019-04-30T19:05:42.407Z,13.77
2019-04-30T19:08:24.523Z,12.13
2019-04-30T19:10:54.491Z,13.43
2019-04-30T19:13:41.483Z,12.17
2019-04-30T19:16:30.019Z,13.17
2019-04-30T19:19:03.361Z,12.50
2019-04-30T19:21:32.232Z,13.30
2019-04-30T19:24:00.931Z,13.93
2019-04-30T19:26:29.694Z,15.23
2019-04-30T19:28:58.349Z,16.53
2019-04-30T19:31:27.051Z,15.73
2019-04-30T19:33:55.789Z,14.93
2019-04-30T19:36:35.015Z,14.67
2019-04-30T19:38:54.877Z,14.50
2019-04-30T19:41:23.534Z,14.90
2019-04-30T19:43:52.119Z,14.67
2019-04-30T19:46:20.753Z,15.33
2019-04-30T19:48:50.694Z,13.37
2019-04-30T19:51:19.875Z,14.20
2019-04-30T19:53:49.059Z,14.53
2019-04-30T19:56:18.354Z,14.33
2019-04-30T19:58:59.260Z,14.73
2019-04-30T20:01:18.618Z,14.00
2019-04-30T20:03:47.373Z,15.53
2019-04-30T20:06:16.063Z,14.63
2019-04-30T20:08:44.853Z,15.60
2019-04-30T20:11:13.638Z,15.30
2019-04-30T20:13:42.371Z,15.23
2019-04-30T20:16:11.167Z,14.07
2019-04-30T20:18:42.657Z,15.57
2019-04-30T20:21:13.007Z,17.30
2019-04-30T20:23:41.776Z,15.53
2019-04-30T20:26:10.520Z,14.40
2019-04-30T20:28:42.410Z,15.87
2019-04-30T20:31:11.535Z,18.00
2019-04-30T20:33:40.005Z,16.87
2019-04-30T20:36:09.202Z,15.97
2019-04-30T20:38:42.718Z,16.73
2019-04-30T20:41:12.683Z,17.03
2019-04-30T20:43:41.358Z,15.93
2019-04-30T20:46:10.169Z,15.70
2019-04-30T20:48:39.355Z,16.63
2019-04-30T20:51:09.660Z,16.50
2019-04-30T20:53:39.125Z,16.23
2019-04-30T20:56:09.255Z,16.53
2019-04-30T20:58:40.506Z,16.80
2019-04-30T21:01:09.633Z,16.27
2019-04-30T21:03:39.528Z,16.07
2019-04-30T21:06:08.900Z,15.17
2019-04-30T21:08:37.802Z,15.33
2019-04-30T21:11:06.524Z,15.60
2019-04-30T21:13:35.266Z,15.87
2019-04-30T21:16:04.276Z,16.50
2019-04-30T21:18:32.913Z,15.47
2019-04-30T21:21:01.557Z,17.03
2019-04-30T21:23:30.375Z,17.27
2019-04-30T21:25:59.140Z,17.30
2019-04-30T21:28:29.829Z,18.87
2019-04-30T21:30:59.580Z,18.87
2019-04-30T21:33:35.885Z,17.63
2019-04-30T21:36:12.675Z,20.00
2019-04-30T21:38:41.572Z,20.10
2019-04-30T21:41:10.488Z,19.83
2019-04-30T21:43:39.141Z,19.63
2019-04-30T21:46:09.561Z,21.07
2019-04-30T21:48:38.980Z,20.30
2019-04-30T21:51:09.407Z,21.03
2019-04-30T21:53:39.571Z,19.77
2019-04-30T21:56:08.850Z,20.80
2019-04-30T21:58:39.286Z,20.63
2019-04-30T22:01:12.424Z,22.07
2019-04-30T22:03:42.555Z,21.57
2019-04-30T22:06:12.808Z,22.83
2019-04-30T22:08:41.441Z,22.37
2019-04-30T22:11:10.139Z,22.07
2019-04-30T22:13:39.630Z,23.17
2019-04-30T22:16:09.195Z,22.73
2019-04-30T22:18:37.859Z,24.47
2019-04-30T22:21:06.758Z,22.33
2019-04-30T22:23:35.456Z,24.20
2019-04-30T22:26:05.454Z,23.73
2019-04-30T22:28:34.016Z,26.50
2019-04-30T22:31:02.800Z,26.57
2019-04-30T22:33:31.446Z,25.70
2019-04-30T22:36:10.985Z,24.87
2019-04-30T22:38:59.836Z,27.50
2019-04-30T22:41:30.113Z,28.30
2019-04-30T22:43:58.766Z,26.23
2019-04-30T22:46:29.265Z,25.80
2019-04-30T22:48:57.849Z,27.83
2019-04-30T22:51:46.262Z,27.07
2019-04-30T22:54:14.984Z,26.57
2019-04-30T22:56:43.571Z,28.13
2019-04-30T22:59:12.289Z,27.87
2019-04-30T23:01:45.604Z,27.60
2019-04-30T23:04:21.917Z,29.90
2019-04-30T23:06:50.608Z,27.13
2019-04-30T23:09:19.248Z,26.83
2019-04-30T23:11:48.024Z,28.57
2019-04-30T23:14:16.667Z,31.27
2019-04-30T23:16:45.379Z,29.43
2019-04-30T23:19:14.090Z,28.90
2019-04-30T23:21:42.906Z,27.33
2019-04-30T23:24:11.610Z,29.40
2019-04-30T23:26:40.360Z,30.23
2019-04-30T23:29:09.043Z,29.80
2019-04-30T23:31:37.646Z,29.47
2019-04-30T23:34:17.419Z,30.03
2019-04-30T23:36:36.722Z,30.77
2019-04-30T23:39:06.684Z,30.53
2019-04-30T23:41:35.422Z,30.97
2019-04-30T23:44:04.181Z,31.67
2019-04-30T23:46:32.894Z,33.20
2019-04-30T23:49:01.561Z,32.07
2019-04-30T23:51:30.247Z,32.03
2019-04-30T23:53:58.896Z,32.50
2019-04-30T23:56:27.563Z,31.87
2019-04-30T23:58:56.320Z,32.33
